Time;durP1;ratioP1;P1;durP2;ratioP2;P2;SDS_P1;SDS_P2;PMS_P1;PMS_P2;Temp;Humidity;BMP_temperature;BMP_pressure;BME280_temperature;BME280_humidity;BME280_pressure;Samples;Min_cycle;Max_cycle;Signal;HPM_P1;HPM_P2
2022/08/27 00:02:21;;;;;;;19.47;13.10;;;;;;;;;;754474;185;885021;-55
2022/08/27 00:04:47;;;;;;;59.37;12.40;;;;;;;;;;754034;185;917371;-55
2022/08/27 00:07:13;;;;;;;104.67;13.40;;;;;;;;;;748822;185;920019;-56
2022/08/27 00:09:39;;;;;;;9.20;8.30;;;;;;;;;;746126;187;915140;-55
2022/08/27 00:12:05;;;;;;;12.20;11.00;;;;;;;;;;755646;182;916316;-56
2022/08/27 00:14:30;;;;;;;14.33;12.90;;;;;;;;;;751600;184;915572;-55
2022/08/27 00:16:56;;;;;;;12.73;11.53;;;;;;;;;;756486;180;915952;-56
2022/08/27 00:19:22;;;;;;;22.67;13.57;;;;;;;;;;741323;187;919722;-56
2022/08/27 00:21:48;;;;;;;32.30;13.60;;;;;;;;;;750637;185;918358;-55
2022/08/27 00:24:14;;;;;;;19.57;14.70;;;;;;;;;;759669;184;919049;-55
2022/08/27 00:26:40;;;;;;;18.63;15.13;;;;;;;;;;748494;184;919327;-54
2022/08/27 00:29:07;;;;;;;19.43;14.93;;;;;;;;;;753229;184;921121;-54
2022/08/27 00:31:31;;;;;;;22.00;14.73;;;;;;;;;;762027;184;818618;-55
2022/08/27 00:33:57;;;;;;;21.57;15.67;;;;;;;;;;747422;185;923651;-54
2022/08/27 00:36:23;;;;;;;21.90;16.43;;;;;;;;;;752649;182;918752;-55
2022/08/27 00:38:49;;;;;;;22.50;14.67;;;;;;;;;;748534;183;920168;-56
2022/08/27 00:41:15;;;;;;;20.57;14.90;;;;;;;;;;754505;184;918887;-54
2022/08/27 00:43:43;;;;;;;23.60;15.90;;;;;;;;;;737941;188;891198;-53
2022/08/27 00:46:08;;;;;;;18.27;15.43;;;;;;;;;;756083;185;919398;-56
2022/08/27 00:48:34;;;;;;;18.70;14.57;;;;;;;;;;756689;182;918957;-55
2022/08/27 00:51:00;;;;;;;17.43;14.37;;;;;;;;;;758592;184;919958;-55
2022/08/27 00:53:27;;;;;;;21.73;14.90;;;;;;;;;;755012;185;919540;-55
2022/08/27 00:55:52;;;;;;;17.87;15.63;;;;;;;;;;760328;184;917441;-54
2022/08/27 00:58:19;;;;;;;22.80;17.03;;;;;;;;;;748327;184;920926;-55
2022/08/27 01:00:44;;;;;;;16.37;13.60;;;;;;;;;;751250;185;919551;-56
2022/08/27 01:03:10;;;;;;;23.50;16.60;;;;;;;;;;757556;184;846784;-55
2022/08/27 01:05:37;;;;;;;27.60;17.07;;;;;;;;;;763057;184;919515;-56
2022/08/27 01:08:02;;;;;;;17.87;15.60;;;;;;;;;;752758;184;919571;-56
2022/08/27 01:10:28;;;;;;;22.62;17.15;;;;;;;;;;752831;184;919908;-55
2022/08/27 01:12:55;;;;;;;17.40;15.17;;;;;;;;;;752240;185;918645;-55
2022/08/27 01:15:20;;;;;;;20.70;16.03;;;;;;;;;;753549;183;919443;-54
2022/08/27 01:17:46;;;;;;;24.40;17.10;;;;;;;;;;758748;184;919311;-56
2022/08/27 01:20:11;;;;;;;20.77;16.37;;;;;;;;;;764744;184;895000;-55
2022/08/27 01:22:37;;;;;;;26.50;16.53;;;;;;;;;;751940;184;919912;-55
2022/08/27 01:25:03;;;;;;;19.90;15.97;;;;;;;;;;750886;184;920735;-55
2022/08/27 01:27:30;;;;;;;19.43;14.90;;;;;;;;;;751746;183;918878;-55
2022/08/27 01:29:55;;;;;;;16.50;14.50;;;;;;;;;;759720;184;920249;-54
2022/08/27 01:32:21;;;;;;;18.40;13.80;;;;;;;;;;756976;184;912328;-54
2022/08/27 01:34:47;;;;;;;21.13;15.57;;;;;;;;;;752516;184;917003;-55
2022/08/27 01:37:12;;;;;;;18.23;13.70;;;;;;;;;;754217;184;920042;-55
2022/08/27 01:39:38;;;;;;;93.60;17.40;;;;;;;;;;751584;182;919186;-56
2022/08/27 01:42:05;;;;;;;14.67;13.10;;;;;;;;;;756313;184;917471;-55
2022/08/27 01:44:31;;;;;;;23.90;14.57;;;;;;;;;;761964;184;918902;-55
2022/08/27 01:46:57;;;;;;;16.60;13.70;;;;;;;;;;749324;185;924045;-55
2022/08/27 01:49:23;;;;;;;19.03;14.90;;;;;;;;;;754027;184;908423;-55
2022/08/27 01:51:49;;;;;;;16.00;14.30;;;;;;;;;;752845;185;940852;-56
2022/08/27 01:54:14;;;;;;;16.70;13.00;;;;;;;;;;766341;181;918137;-55
2022/08/27 01:56:40;;;;;;;15.80;13.47;;;;;;;;;;753638;184;931832;-55
2022/08/27 01:59:06;;;;;;;19.37;15.83;;;;;;;;;;747228;185;920029;-55
2022/08/27 02:01:32;;;;;;;24.30;19.73;;;;;;;;;;758428;184;814333;-56
2022/08/27 02:03:58;;;;;;;28.03;22.43;;;;;;;;;;748886;180;921345;-55
2022/08/27 02:06:24;;;;;;;30.13;23.10;;;;;;;;;;758025;184;920197;-55
2022/08/27 02:08:49;;;;;;;34.67;26.00;;;;;;;;;;757153;185;918743;-55
2022/08/27 02:11:15;;;;;;;38.13;26.17;;;;;;;;;;752481;184;918839;-55
2022/08/27 02:13:41;;;;;;;36.40;28.67;;;;;;;;;;757320;184;818011;-56
2022/08/27 02:16:08;;;;;;;35.30;27.97;;;;;;;;;;754007;185;919248;-56
2022/08/27 02:18:35;;;;;;;39.50;28.53;;;;;;;;;;762768;185;928800;-55
2022/08/27 02:20:59;;;;;;;44.70;30.77;;;;;;;;;;752390;185;919555;-55
2022/08/27 02:23:25;;;;;;;40.20;31.07;;;;;;;;;;752926;184;918319;-56
2022/08/27 02:25:51;;;;;;;37.67;29.97;;;;;;;;;;762417;184;899927;-55
2022/08/27 02:28:17;;;;;;;40.97;28.23;;;;;;;;;;749336;185;918637;-55
2022/08/27 02:30:43;;;;;;;35.17;27.27;;;;;;;;;;753188;185;911540;-55
2022/08/27 02:33:09;;;;;;;42.70;28.40;;;;;;;;;;756428;182;919455;-54
2022/08/27 02:35:37;;;;;;;34.03;24.60;;;;;;;;;;744813;184;919161;-55
2022/08/27 02:38:01;;;;;;;34.20;27.17;;;;;;;;;;750823;184;920977;-56
2022/08/27 02:40:26;;;;;;;37.40;27.33;;;;;;;;;;755154;185;917762;-55
2022/08/27 02:42:52;;;;;;;33.70;27.30;;;;;;;;;;754672;184;920686;-56
2022/08/27 02:45:19;;;;;;;35.70;25.60;;;;;;;;;;759595;184;920400;-56
2022/08/27 02:47:44;;;;;;;31.40;27.17;;;;;;;;;;751084;184;921046;-55
2022/08/27 02:50:10;;;;;;;36.90;27.23;;;;;;;;;;763569;184;919303;-55
2022/08/27 02:52:36;;;;;;;34.83;26.53;;;;;;;;;;759742;184;814027;-57
2022/08/27 02:55:02;;;;;;;38.92;28.35;;;;;;;;;;748404;181;925070;-56
2022/08/27 02:57:27;;;;;;;41.33;27.73;;;;;;;;;;755797;185;919357;-56
2022/08/27 02:59:53;;;;;;;34.63;27.50;;;;;;;;;;755566;184;901870;-56
2022/08/27 03:02:19;;;;;;;38.67;26.80;;;;;;;;;;756029;184;919292;-55
2022/08/27 03:04:46;;;;;;;29.37;25.47;;;;;;;;;;752554;185;917916;-56
2022/08/27 03:07:11;;;;;;;33.40;26.20;;;;;;;;;;754342;185;917281;-55
2022/08/27 03:09:37;;;;;;;36.80;27.27;;;;;;;;;;751117;185;919342;-55
2022/08/27 03:12:03;;;;;;;29.67;24.37;;;;;;;;;;752077;185;919320;-56
2022/08/27 03:14:30;;;;;;;35.10;25.50;;;;;;;;;;751984;185;915958;-55
2022/08/27 03:18:16;;;;;;;37.47;25.33;;;;;;;;;;753298;184;921413;-58
2022/08/27 03:19:21;;;;;;;35.17;26.13;;;;;;;;;;747520;184;919867;-55
2022/08/27 03:21:47;;;;;;;33.10;25.85;;;;;;;;;;756515;184;825232;-56
2022/08/27 03:24:13;;;;;;;37.50;25.13;;;;;;;;;;750037;184;919747;-55
2022/08/27 03:26:38;;;;;;;34.20;25.60;;;;;;;;;;750748;185;919383;-56
2022/08/27 03:29:04;;;;;;;42.73;27.03;;;;;;;;;;755082;185;939533;-55
2022/08/27 03:31:30;;;;;;;35.57;27.83;;;;;;;;;;747073;184;919208;-55
2022/08/27 03:33:56;;;;;;;33.00;26.23;;;;;;;;;;753878;184;919741;-56
2022/08/27 03:36:22;;;;;;;41.67;28.17;;;;;;;;;;749896;185;919794;-56
2022/08/27 03:38:48;;;;;;;34.00;25.80;;;;;;;;;;759420;181;920691;-55
2022/08/27 03:41:14;;;;;;;29.00;22.77;;;;;;;;;;754847;184;919658;-55
2022/08/27 03:43:39;;;;;;;35.53;23.07;;;;;;;;;;751337;185;920894;-56
2022/08/27 03:46:05;;;;;;;32.07;23.17;;;;;;;;;;757725;184;919744;-56
2022/08/27 03:48:31;;;;;;;34.70;25.77;;;;;;;;;;755260;184;918126;-55
2022/08/27 03:50:57;;;;;;;29.63;22.20;;;;;;;;;;756400;184;919847;-54
2022/08/27 03:53:23;;;;;;;30.50;23.70;;;;;;;;;;755752;184;938394;-56
2022/08/27 03:55:49;;;;;;;26.58;22.62;;;;;;;;;;757155;184;822708;-56
2022/08/27 03:58:14;;;;;;;25.07;21.23;;;;;;;;;;751013;184;919091;-56
2022/08/27 04:00:40;;;;;;;24.00;21.10;;;;;;;;;;758222;184;919444;-56
2022/08/27 04:03:06;;;;;;;23.77;21.27;;;;;;;;;;749678;184;913436;-56
2022/08/27 04:05:32;;;;;;;27.63;21.53;;;;;;;;;;754212;184;916850;-56
2022/08/27 04:07:58;;;;;;;27.33;21.10;;;;;;;;;;745553;184;918612;-56
2022/08/27 04:10:24;;;;;;;26.53;22.20;;;;;;;;;;758997;184;919751;-56
2022/08/27 04:12:50;;;;;;;24.30;19.67;;;;;;;;;;754194;184;919716;-56
2022/08/27 04:15:15;;;;;;;25.73;22.07;;;;;;;;;;752124;184;919226;-56
2022/08/27 04:17:41;;;;;;;29.03;21.33;;;;;;;;;;753169;183;919496;-55
2022/08/27 04:20:08;;;;;;;25.97;20.60;;;;;;;;;;756089;184;921213;-56
2022/08/27 04:22:34;;;;;;;26.00;20.25;;;;;;;;;;755739;184;919749;-56
2022/08/27 04:25:00;;;;;;;32.57;22.33;;;;;;;;;;751323;185;919761;-56
2022/08/27 04:27:26;;;;;;;33.30;23.00;;;;;;;;;;753562;184;818863;-55
2022/08/27 04:29:55;;;;;;;26.77;21.73;;;;;;;;;;754802;185;918886;-57
2022/08/27 04:32:22;;;;;;;34.33;22.53;;;;;;;;;;750349;185;919000;-56
2022/08/27 04:34:47;;;;;;;30.83;23.00;;;;;;;;;;759049;184;918193;-56
2022/08/27 04:37:13;;;;;;;33.00;24.03;;;;;;;;;;753038;184;919384;-55
2022/08/27 04:39:39;;;;;;;29.73;22.80;;;;;;;;;;753462;184;918907;-56
2022/08/27 04:42:05;;;;;;;36.97;27.67;;;;;;;;;;757714;185;918966;-56
2022/08/27 04:44:31;;;;;;;29.80;25.90;;;;;;;;;;753708;182;887626;-56
2022/08/27 04:46:56;;;;;;;31.90;26.93;;;;;;;;;;754514;181;919652;-56
2022/08/27 04:49:22;;;;;;;34.90;28.83;;;;;;;;;;753408;184;918468;-58
2022/08/27 04:51:48;;;;;;;43.70;29.73;;;;;;;;;;767584;182;920367;-57
2022/08/27 04:54:14;;;;;;;41.37;30.63;;;;;;;;;;747771;183;920068;-56
2022/08/27 04:56:40;;;;;;;40.03;28.60;;;;;;;;;;751212;185;919626;-56
2022/08/27 04:59:06;;;;;;;40.43;30.17;;;;;;;;;;759375;181;918923;-57
2022/08/27 05:01:31;;;;;;;42.30;34.10;;;;;;;;;;755075;182;918211;-56
2022/08/27 05:03:57;;;;;;;42.47;32.80;;;;;;;;;;754770;184;950376;-55
2022/08/27 05:06:23;;;;;;;36.28;29.23;;;;;;;;;;753877;186;919442;-57
2022/08/27 05:08:49;;;;;;;34.90;28.30;;;;;;;;;;750235;185;918188;-56
2022/08/27 05:11:15;;;;;;;40.55;31.12;;;;;;;;;;751374;180;918625;-56
2022/08/27 05:13:41;;;;;;;54.10;33.10;;;;;;;;;;762054;184;918464;-56
2022/08/27 05:16:07;;;;;;;47.67;34.97;;;;;;;;;;755569;184;817007;-56
2022/08/27 05:18:32;;;;;;;47.13;36.10;;;;;;;;;;754983;184;912122;-56
2022/08/27 05:20:59;;;;;;;48.50;37.23;;;;;;;;;;747510;185;918725;-56
2022/08/27 05:23:26;;;;;;;53.83;40.20;;;;;;;;;;758024;184;920644;-56
2022/08/27 05:25:50;;;;;;;53.10;40.97;;;;;;;;;;755379;184;920302;-56
2022/08/27 05:28:16;;;;;;;54.40;40.70;;;;;;;;;;757284;184;919612;-56
2022/08/27 05:30:42;;;;;;;59.93;42.37;;;;;;;;;;754119;185;918641;-56
2022/08/27 05:33:09;;;;;;;68.75;46.30;;;;;;;;;;750750;184;914703;-56
2022/08/27 05:35:38;;;;;;;62.80;47.47;;;;;;;;;;756120;185;918774;-56
2022/08/27 05:38:04;;;;;;;80.83;50.63;;;;;;;;;;753025;184;918820;-57
2022/08/27 05:40:30;;;;;;;75.43;53.50;;;;;;;;;;752935;185;816901;-57
2022/08/27 05:42:56;;;;;;;78.10;55.80;;;;;;;;;;755049;184;921208;-56
2022/08/27 05:45:23;;;;;;;92.37;56.70;;;;;;;;;;752531;184;919306;-56
2022/08/27 05:47:48;;;;;;;82.67;55.47;;;;;;;;;;757065;184;816921;-58
2022/08/27 05:50:14;;;;;;;97.97;61.50;;;;;;;;;;754688;184;910144;-57
2022/08/27 05:52:39;;;;;;;100.50;64.77;;;;;;;;;;755807;184;809448;-57
2022/08/27 05:55:06;;;;;;;96.37;66.20;;;;;;;;;;757672;185;919134;-56
2022/08/27 05:57:31;;;;;;;67.23;51.73;;;;;;;;;;757077;184;918316;-57
2022/08/27 06:02:29;;;;;;;61.83;43.87;;;;;;;;;;751611;185;917766;-57
2022/08/27 06:04:55;;;;;;;41.20;35.40;;;;;;;;;;752585;183;917605;-56
2022/08/27 06:07:21;;;;;;;43.60;30.60;;;;;;;;;;748091;185;926472;-56
2022/08/27 06:09:47;;;;;;;38.13;30.53;;;;;;;;;;754196;183;920001;-55
2022/08/27 06:12:12;;;;;;;38.13;30.00;;;;;;;;;;756826;182;820769;-57
2022/08/27 06:14:39;;;;;;;35.40;28.90;;;;;;;;;;739148;187;919021;-57
2022/08/27 06:17:05;;;;;;;34.73;25.67;;;;;;;;;;753580;184;919980;-57
2022/08/27 06:19:30;;;;;;;29.43;22.63;;;;;;;;;;755631;184;912450;-55
2022/08/27 06:21:57;;;;;;;28.73;20.90;;;;;;;;;;749012;184;920312;-56
2022/08/27 06:24:22;;;;;;;24.63;17.70;;;;;;;;;;751727;182;918969;-56
2022/08/27 06:26:48;;;;;;;23.10;16.97;;;;;;;;;;754044;184;916822;-57
2022/08/27 06:29:14;;;;;;;31.13;16.97;;;;;;;;;;754188;184;920871;-56
2022/08/27 06:31:40;;;;;;;23.20;18.47;;;;;;;;;;755228;185;919648;-56
2022/08/27 06:34:05;;;;;;;19.40;15.67;;;;;;;;;;758603;184;892495;-56
2022/08/27 06:36:31;;;;;;;22.20;15.00;;;;;;;;;;759074;185;920734;-56
2022/08/27 06:38:58;;;;;;;21.07;13.87;;;;;;;;;;756961;184;922041;-57
2022/08/27 06:41:23;;;;;;;17.83;13.57;;;;;;;;;;751754;184;920347;-57
2022/08/27 06:43:49;;;;;;;22.80;12.37;;;;;;;;;;759350;182;918820;-57
2022/08/27 06:46:15;;;;;;;20.77;11.10;;;;;;;;;;749726;185;933155;-57
2022/08/27 06:48:43;;;;;;;13.33;10.33;;;;;;;;;;757140;183;918493;-56
2022/08/27 06:51:07;;;;;;;10.47;9.30;;;;;;;;;;747841;185;918911;-57
2022/08/27 06:53:33;;;;;;;13.40;9.03;;;;;;;;;;756932;183;936369;-55
2022/08/27 06:55:59;;;;;;;17.52;8.85;;;;;;;;;;753656;184;919312;-57
2022/08/27 06:58:25;;;;;;;11.50;8.50;;;;;;;;;;748446;185;919045;-56
2022/08/27 07:00:51;;;;;;;12.70;8.33;;;;;;;;;;757950;185;918629;-57
2022/08/27 07:03:16;;;;;;;13.53;8.37;;;;;;;;;;752586;184;918786;-56
2022/08/27 07:05:42;;;;;;;16.83;8.30;;;;;;;;;;756046;184;914931;-57
2022/08/27 07:08:08;;;;;;;13.02;7.62;;;;;;;;;;753557;185;917055;-56
2022/08/27 07:10:34;;;;;;;12.37;8.10;;;;;;;;;;754550;184;823843;-56
2022/08/27 07:13:00;;;;;;;9.43;7.30;;;;;;;;;;750052;185;846479;-56
2022/08/27 07:15:27;;;;;;;16.50;8.20;;;;;;;;;;753820;185;918245;-57
2022/08/27 07:17:53;;;;;;;12.10;6.70;;;;;;;;;;745459;188;918825;-56
2022/08/27 07:20:19;;;;;;;8.70;5.73;;;;;;;;;;750511;185;936289;-57
2022/08/27 07:22:45;;;;;;;10.97;6.17;;;;;;;;;;753978;184;912613;-57
2022/08/27 07:25:11;;;;;;;11.23;5.72;;;;;;;;;;762338;182;919730;-58
2022/08/27 07:27:37;;;;;;;14.50;6.80;;;;;;;;;;755252;184;916051;-57
2022/08/27 07:30:03;;;;;;;15.70;6.63;;;;;;;;;;752279;184;919914;-56
2022/08/27 07:32:29;;;;;;;9.90;5.50;;;;;;;;;;757271;184;917718;-57
2022/08/27 07:34:55;;;;;;;11.80;5.27;;;;;;;;;;748847;184;919529;-56
2022/08/27 07:37:21;;;;;;;18.17;6.00;;;;;;;;;;750119;184;919944;-57
2022/08/27 07:39:46;;;;;;;25.53;7.70;;;;;;;;;;754002;184;919270;-59
2022/08/27 07:44:44;;;;;;;12.00;6.20;;;;;;;;;;754903;184;918409;-59
2022/08/27 07:47:10;;;;;;;17.67;6.97;;;;;;;;;;751942;184;926287;-60
2022/08/27 07:49:36;;;;;;;16.47;6.90;;;;;;;;;;754422;184;814803;-59
2022/08/27 07:52:02;;;;;;;10.37;6.40;;;;;;;;;;756632;184;815381;-60
2022/08/27 07:54:28;;;;;;;11.00;7.40;;;;;;;;;;752475;184;918953;-61
2022/08/27 07:56:54;;;;;;;20.92;7.97;;;;;;;;;;755712;185;824264;-59
2022/08/27 07:59:19;;;;;;;19.70;8.10;;;;;;;;;;755853;182;818521;-58
2022/08/27 08:01:47;;;;;;;10.80;6.63;;;;;;;;;;753845;184;919159;-57
2022/08/27 08:04:11;;;;;;;15.88;7.18;;;;;;;;;;753941;184;919257;-57
2022/08/27 08:06:37;;;;;;;17.37;8.10;;;;;;;;;;756825;185;719827;-58
2022/08/27 08:09:03;;;;;;;10.20;7.50;;;;;;;;;;749580;185;817692;-57
2022/08/27 08:11:29;;;;;;;13.80;7.43;;;;;;;;;;753872;184;918646;-59
2022/08/27 08:13:55;;;;;;;13.00;7.40;;;;;;;;;;757203;184;919272;-57
2022/08/27 08:16:20;;;;;;;10.20;6.93;;;;;;;;;;752668;184;918831;-57
2022/08/27 08:18:46;;;;;;;13.83;6.93;;;;;;;;;;752674;184;920019;-56
2022/08/27 08:21:12;;;;;;;15.73;6.90;;;;;;;;;;757016;184;918873;-57
2022/08/27 08:23:38;;;;;;;16.53;7.30;;;;;;;;;;753783;184;922075;-57
2022/08/27 08:26:04;;;;;;;15.63;7.60;;;;;;;;;;746587;185;919381;-57
2022/08/27 08:28:30;;;;;;;10.87;7.57;;;;;;;;;;751350;185;925178;-58
2022/08/27 08:30:56;;;;;;;14.63;8.03;;;;;;;;;;759712;184;918655;-58
2022/08/27 08:33:21;;;;;;;14.27;7.70;;;;;;;;;;755934;184;917303;-58
2022/08/27 08:35:48;;;;;;;23.37;8.80;;;;;;;;;;750685;184;918872;-57
2022/08/27 08:38:14;;;;;;;14.70;7.80;;;;;;;;;;759199;183;918270;-58
2022/08/27 08:40:41;;;;;;;20.40;10.02;;;;;;;;;;752211;184;915580;-57
2022/08/27 08:43:06;;;;;;;16.13;8.67;;;;;;;;;;754989;182;815726;-57
2022/08/27 08:45:33;;;;;;;14.03;8.17;;;;;;;;;;754898;184;883697;-58
2022/08/27 08:48:03;;;;;;;18.70;8.43;;;;;;;;;;750723;181;922335;-57
2022/08/27 08:50:28;;;;;;;17.02;8.63;;;;;;;;;;754038;184;922176;-57
2022/08/27 08:52:55;;;;;;;12.47;7.87;;;;;;;;;;748244;184;919940;-58
2022/08/27 08:55:27;;;;;;;13.50;7.60;;;;;;;;;;758609;184;917688;-57
2022/08/27 08:57:53;;;;;;;10.40;7.07;;;;;;;;;;755488;182;916974;-57
2022/08/27 09:00:19;;;;;;;10.40;7.13;;;;;;;;;;749747;185;918750;-57
2022/08/27 09:02:45;;;;;;;9.57;7.00;;;;;;;;;;748404;185;917851;-57
2022/08/27 09:05:11;;;;;;;11.95;6.80;;;;;;;;;;756699;184;919316;-57
2022/08/27 09:07:40;;;;;;;8.10;6.30;;;;;;;;;;754952;184;912867;-58
2022/08/27 09:10:22;;;;;;;9.55;7.45;;;;;;;;;;753981;184;914246;-57
2022/08/27 09:12:48;;;;;;;11.13;7.10;;;;;;;;;;747887;184;916986;-57
2022/08/27 09:15:15;;;;;;;7.17;6.07;;;;;;;;;;752559;185;818393;-57
2022/08/27 09:17:40;;;;;;;10.83;6.10;;;;;;;;;;754161;182;816431;-59
2022/08/27 09:20:07;;;;;;;8.73;5.50;;;;;;;;;;749234;183;919076;-58
2022/08/27 09:22:37;;;;;;;10.33;6.50;;;;;;;;;;748567;184;919532;-58
2022/08/27 09:25:04;;;;;;;10.70;5.80;;;;;;;;;;751054;184;918453;-59
2022/08/27 09:27:28;;;;;;;12.10;6.27;;;;;;;;;;748720;185;924118;-56
2022/08/27 09:29:54;;;;;;;8.43;5.50;;;;;;;;;;747251;184;926045;-58
2022/08/27 09:32:22;;;;;;;12.03;7.57;;;;;;;;;;757539;180;918421;-59
2022/08/27 09:34:48;;;;;;;8.63;6.40;;;;;;;;;;756761;184;839611;-58
2022/08/27 09:37:14;;;;;;;17.27;7.47;;;;;;;;;;751915;184;857098;-59
2022/08/27 09:39:49;;;;;;;7.40;6.43;;;;;;;;;;753243;182;817771;-58
2022/08/27 09:42:20;;;;;;;8.33;6.80;;;;;;;;;;759354;184;846565;-58
2022/08/27 09:44:46;;;;;;;10.80;8.40;;;;;;;;;;758297;182;818134;-59
2022/08/27 09:47:13;;;;;;;13.60;8.33;;;;;;;;;;755723;183;816701;-59
2022/08/27 09:49:40;;;;;;;9.37;6.33;;;;;;;;;;757868;182;884309;-58
2022/08/27 09:52:04;;;;;;;10.80;5.60;;;;;;;;;;760677;184;918816;-59
2022/08/27 09:54:39;;;;;;;10.60;6.00;;;;;;;;;;755693;184;814378;-58
2022/08/27 09:57:05;;;;;;;9.97;6.07;;;;;;;;;;751200;184;924741;-60
2022/08/27 09:59:32;;;;;;;6.83;5.00;;;;;;;;;;754882;184;919151;-59
2022/08/27 10:02:16;;;;;;;7.00;5.20;;;;;;;;;;762641;182;906177;-58
2022/08/27 10:04:45;;;;;;;10.20;5.70;;;;;;;;;;757480;184;914702;-59
2022/08/27 10:07:26;;;;;;;7.17;5.93;;;;;;;;;;756317;184;925669;-59
2022/08/27 10:09:52;;;;;;;10.73;6.10;;;;;;;;;;756943;184;919228;-61
2022/08/27 10:12:20;;;;;;;9.90;6.57;;;;;;;;;;753219;184;918816;-60
2022/08/27 10:14:46;;;;;;;10.73;6.20;;;;;;;;;;757475;184;919734;-59
2022/08/27 10:17:17;;;;;;;8.77;6.10;;;;;;;;;;753276;184;844168;-60
2022/08/27 10:19:47;;;;;;;8.47;5.67;;;;;;;;;;753533;184;905548;-59
2022/08/27 10:22:16;;;;;;;8.00;5.70;;;;;;;;;;752760;184;1020798;-57
2022/08/27 10:24:47;;;;;;;11.13;5.47;;;;;;;;;;754285;185;815533;-61
2022/08/27 10:27:28;;;;;;;8.70;5.87;;;;;;;;;;757648;184;911414;-60
2022/08/27 10:30:05;;;;;;;16.00;6.93;;;;;;;;;;756423;185;812014;-60
2022/08/27 10:32:32;;;;;;;10.23;7.03;;;;;;;;;;755119;184;919593;-59
2022/08/27 10:35:02;;;;;;;9.07;6.30;;;;;;;;;;751394;185;816380;-61
2022/08/27 10:37:28;;;;;;;9.70;6.27;;;;;;;;;;753613;184;815592;-60
2022/08/27 10:39:57;;;;;;;9.03;6.80;;;;;;;;;;754324;185;870856;-58
2022/08/27 10:42:25;;;;;;;10.13;7.37;;;;;;;;;;753862;184;917633;-60
2022/08/27 10:44:50;;;;;;;8.47;5.63;;;;;;;;;;747923;185;925754;-58
2022/08/27 10:47:33;;;;;;;7.10;6.07;;;;;;;;;;756715;184;919685;-60
2022/08/27 10:50:04;;;;;;;10.67;5.17;;;;;;;;;;746828;184;919207;-59
2022/08/27 10:52:36;;;;;;;7.20;6.13;;;;;;;;;;751363;185;919793;-60
2022/08/27 10:55:17;;;;;;;9.87;7.17;;;;;;;;;;748867;185;922486;-58
2022/08/27 10:57:49;;;;;;;11.20;6.57;;;;;;;;;;755455;183;920050;-59
2022/08/27 11:00:17;;;;;;;10.50;7.20;;;;;;;;;;755964;184;919167;-59
2022/08/27 11:02:43;;;;;;;7.47;6.33;;;;;;;;;;755768;183;895716;-59
2022/08/27 11:05:14;;;;;;;8.47;6.23;;;;;;;;;;755436;184;840501;-59
2022/08/27 11:07:40;;;;;;;9.43;7.00;;;;;;;;;;752221;184;918076;-58
2022/08/27 11:10:08;;;;;;;9.00;7.20;;;;;;;;;;755052;184;816507;-60
2022/08/27 11:12:34;;;;;;;8.50;7.17;;;;;;;;;;755903;184;919288;-60
2022/08/27 11:15:00;;;;;;;10.10;8.43;;;;;;;;;;760831;184;819460;-58
2022/08/27 11:17:41;;;;;;;8.87;7.03;;;;;;;;;;752023;185;918980;-60
2022/08/27 11:20:07;;;;;;;14.87;9.03;;;;;;;;;;757426;182;878795;-60
2022/08/27 11:22:33;;;;;;;8.80;6.30;;;;;;;;;;749317;185;945303;-60
2022/08/27 11:25:14;;;;;;;9.07;6.00;;;;;;;;;;752964;185;861298;-60
2022/08/27 11:27:40;;;;;;;10.93;5.50;;;;;;;;;;755950;184;920557;-59
2022/08/27 11:30:07;;;;;;;10.53;6.90;;;;;;;;;;755382;184;862789;-60
2022/08/27 11:32:45;;;;;;;13.23;6.43;;;;;;;;;;756637;184;910461;-60
2022/08/27 11:35:14;;;;;;;9.20;6.33;;;;;;;;;;754411;184;816920;-61
2022/08/27 11:37:55;;;;;;;8.57;5.67;;;;;;;;;;753109;185;919274;-59
2022/08/27 11:40:27;;;;;;;8.70;5.40;;;;;;;;;;755891;183;920866;-58
2022/08/27 11:42:54;;;;;;;5.80;5.05;;;;;;;;;;758969;185;918851;-59
2022/08/27 11:45:20;;;;;;;9.93;5.47;;;;;;;;;;753137;184;871639;-60
2022/08/27 11:47:50;;;;;;;8.13;5.47;;;;;;;;;;755265;184;845017;-58
2022/08/27 11:50:15;;;;;;;9.13;4.87;;;;;;;;;;754379;181;913613;-58
2022/08/27 11:52:41;;;;;;;8.23;5.17;;;;;;;;;;753068;183;919051;-59
2022/08/27 11:55:28;;;;;;;9.90;5.10;;;;;;;;;;752527;184;919401;-60
2022/08/27 11:58:09;;;;;;;11.50;5.13;;;;;;;;;;750794;184;918884;-62
2022/08/27 12:00:35;;;;;;;5.87;4.43;;;;;;;;;;755300;183;816480;-68
2022/08/27 12:03:02;;;;;;;13.13;5.00;;;;;;;;;;753226;184;813019;-60
2022/08/27 12:05:34;;;;;;;7.00;4.53;;;;;;;;;;755463;184;918137;-62
2022/08/27 12:08:00;;;;;;;7.90;4.17;;;;;;;;;;748370;182;921793;-59
2022/08/27 12:10:26;;;;;;;6.28;4.28;;;;;;;;;;750901;183;916157;-61
2022/08/27 12:13:08;;;;;;;6.27;4.40;;;;;;;;;;758328;184;920418;-59
2022/08/27 12:15:33;;;;;;;5.83;4.03;;;;;;;;;;762070;184;835148;-60
2022/08/27 12:18:02;;;;;;;6.63;4.10;;;;;;;;;;755410;184;815383;-59
2022/08/27 12:20:48;;;;;;;4.87;3.60;;;;;;;;;;756479;181;919463;-60
2022/08/27 12:26:09;;;;;;;11.27;3.50;;;;;;;;;;753716;184;922221;-57
2022/08/27 12:28:35;;;;;;;8.13;3.90;;;;;;;;;;754700;184;916926;-56
2022/08/27 12:31:03;;;;;;;9.27;4.00;;;;;;;;;;754073;184;920438;-58
2022/08/27 12:33:27;;;;;;;6.63;4.00;;;;;;;;;;758847;184;828606;-57
2022/08/27 12:35:53;;;;;;;6.83;3.67;;;;;;;;;;756547;184;918470;-57
2022/08/27 12:38:19;;;;;;;12.60;4.30;;;;;;;;;;753474;184;920963;-58
2022/08/27 12:40:50;;;;;;;7.63;5.07;;;;;;;;;;754788;185;919512;-57
2022/08/27 12:43:17;;;;;;;4.63;3.77;;;;;;;;;;751247;184;920390;-58
2022/08/27 12:45:45;;;;;;;9.20;4.20;;;;;;;;;;756329;184;919916;-57
2022/08/27 12:48:11;;;;;;;5.80;4.10;;;;;;;;;;749294;185;921458;-58
2022/08/27 12:50:37;;;;;;;7.80;4.47;;;;;;;;;;756247;185;818782;-59
2022/08/27 12:53:12;;;;;;;6.93;4.13;;;;;;;;;;755977;184;819089;-59
2022/08/27 12:55:44;;;;;;;8.03;6.93;;;;;;;;;;752628;184;918183;-56
2022/08/27 12:58:11;;;;;;;6.85;4.12;;;;;;;;;;751755;183;902029;-60
2022/08/27 13:00:36;;;;;;;5.50;3.90;;;;;;;;;;757699;184;907558;-58
2022/08/27 13:03:13;;;;;;;6.53;4.97;;;;;;;;;;744430;184;911658;-58
2022/08/27 13:05:39;;;;;;;5.93;4.10;;;;;;;;;;755399;184;813874;-57
2022/08/27 13:08:05;;;;;;;7.33;4.27;;;;;;;;;;749598;185;818268;-60
2022/08/27 13:10:31;;;;;;;5.60;3.70;;;;;;;;;;757448;184;920809;-57
2022/08/27 13:13:03;;;;;;;7.50;4.00;;;;;;;;;;752347;185;917625;-58
2022/08/27 13:15:29;;;;;;;7.90;4.70;;;;;;;;;;750603;185;928906;-58
2022/08/27 13:17:54;;;;;;;7.47;4.03;;;;;;;;;;754569;182;914613;-57
2022/08/27 13:20:21;;;;;;;6.00;4.47;;;;;;;;;;759744;182;928970;-57
2022/08/27 13:22:47;;;;;;;6.47;4.53;;;;;;;;;;752954;184;918722;-60
2022/08/27 13:25:22;;;;;;;6.90;4.50;;;;;;;;;;755037;184;939761;-57
2022/08/27 13:27:51;;;;;;;6.63;4.20;;;;;;;;;;753878;183;918848;-57
2022/08/27 13:30:17;;;;;;;8.60;4.80;;;;;;;;;;760629;184;918135;-57
2022/08/27 13:32:43;;;;;;;6.43;4.70;;;;;;;;;;749415;184;919106;-59
2022/08/27 13:35:09;;;;;;;8.32;3.95;;;;;;;;;;749858;184;916089;-56
2022/08/27 13:37:40;;;;;;;8.53;4.50;;;;;;;;;;761116;184;919033;-56
2022/08/27 13:40:07;;;;;;;9.90;5.20;;;;;;;;;;753970;185;920329;-57
2022/08/27 13:42:33;;;;;;;10.20;4.53;;;;;;;;;;753260;182;935598;-56
2022/08/27 13:45:00;;;;;;;5.73;4.87;;;;;;;;;;751072;185;920278;-57
2022/08/27 13:47:25;;;;;;;6.40;4.60;;;;;;;;;;755297;184;713197;-59
2022/08/27 13:49:51;;;;;;;5.07;4.33;;;;;;;;;;752813;183;919986;-56
2022/08/27 13:52:17;;;;;;;7.37;5.17;;;;;;;;;;755318;184;837384;-59
2022/08/27 13:54:45;;;;;;;6.87;3.87;;;;;;;;;;754924;184;917647;-58
2022/08/27 13:57:12;;;;;;;5.50;4.53;;;;;;;;;;752638;184;821252;-56
2022/08/27 13:59:37;;;;;;;6.40;4.47;;;;;;;;;;753497;184;936737;-56
2022/08/27 14:02:23;;;;;;;7.73;4.67;;;;;;;;;;747722;185;919421;-57
2022/08/27 14:04:50;;;;;;;5.93;4.10;;;;;;;;;;749227;185;918700;-59
2022/08/27 14:07:22;;;;;;;5.57;3.57;;;;;;;;;;753771;185;917731;-59
2022/08/27 14:09:49;;;;;;;10.13;4.23;;;;;;;;;;741884;186;919001;-58
2022/08/27 14:12:18;;;;;;;5.50;4.43;;;;;;;;;;751619;186;918793;-57
2022/08/27 14:14:53;;;;;;;6.60;4.30;;;;;;;;;;748116;185;919127;-58
2022/08/27 14:17:15;;;;;;;6.23;4.07;;;;;;;;;;759513;184;919986;-57
2022/08/27 14:19:41;;;;;;;5.93;4.67;;;;;;;;;;749849;185;919812;-58
2022/08/27 14:22:07;;;;;;;6.53;4.80;;;;;;;;;;756360;184;911380;-56